Time;durP1;ratioP1;P1;durP2;ratioP2;P2;SDS_P1;SDS_P2;PMS_P1;PMS_P2;Temp;Humidity;BMP_temperature;BMP_pressure;BME280_temperature;BME280_humidity;BME280_pressure;Samples;Min_cycle;Max_cycle;Signal;HPM_P1;HPM_P2
2022/06/13 00:01:30;;;;;;;7.22;4.20;;;;;;;15.32;100.00;97561.00;5066628;28;20045;-66
2022/06/13 00:03:58;;;;;;;8.27;4.13;;;;;;;15.24;100.00;97556.09;5064442;28;20487;-67
2022/06/13 00:06:24;;;;;;;7.78;4.30;;;;;;;15.22;100.00;97553.66;5065095;28;20044;-66
2022/06/13 00:08:51;;;;;;;8.73;4.50;;;;;;;15.16;100.00;97562.97;5066723;28;20123;-66
2022/06/13 00:11:21;;;;;;;6.57;4.68;;;;;;;15.27;100.00;97561.00;5066315;28;20048;-66
2022/06/13 00:13:50;;;;;;;8.38;4.88;;;;;;;15.27;100.00;97558.28;5066488;28;20044;-66
2022/06/13 00:16:17;;;;;;;9.00;5.60;;;;;;;15.42;100.00;97555.50;5066755;28;20411;-66
2022/06/13 00:18:47;;;;;;;9.05;5.25;;;;;;;15.29;100.00;97553.38;5066440;28;20037;-67
2022/06/13 00:21:40;;;;;;;9.40;4.47;;;;;;;15.34;100.00;97564.28;5066371;28;20052;-67
2022/06/13 00:24:07;;;;;;;6.95;4.00;;;;;;;15.44;100.00;97569.69;5065782;28;20073;-67
2022/06/13 00:26:35;;;;;;;7.63;4.30;;;;;;;15.50;100.00;97562.28;5066731;28;20055;-66
2022/06/13 00:29:03;;;;;;;5.75;3.97;;;;;;;15.34;100.00;97551.44;5066081;28;20044;-67
2022/06/13 00:31:29;;;;;;;6.88;4.30;;;;;;;15.36;100.00;97537.50;5067004;28;20048;-66
2022/06/13 00:33:56;;;;;;;7.68;4.43;;;;;;;15.43;100.00;97539.94;5066831;28;20040;-66
2022/06/13 00:36:23;;;;;;;6.03;4.13;;;;;;;15.42;100.00;97552.78;5065637;28;20040;-66
2022/06/13 00:38:54;;;;;;;7.43;3.65;;;;;;;15.42;100.00;97550.06;5066390;28;20068;-66
2022/06/13 00:41:28;;;;;;;6.32;3.65;;;;;;;15.43;100.00;97548.94;5065927;28;20053;-66
2022/06/13 00:43:55;;;;;;;7.53;3.78;;;;;;;15.43;100.00;97535.31;5067607;28;20471;-66
2022/06/13 00:46:27;;;;;;;7.68;3.85;;;;;;;15.42;100.00;97536.41;5070137;28;20119;-66
2022/06/13 00:49:01;;;;;;;4.82;3.03;;;;;;;15.39;100.00;97542.41;5070744;28;20090;-66
2022/06/13 00:51:30;;;;;;;5.20;2.50;;;;;;;15.45;100.00;97541.28;5069966;28;20052;-66
2022/06/13 00:53:57;;;;;;;8.93;3.00;;;;;;;15.50;100.00;97535.00;5069394;28;20044;-66
2022/06/13 00:56:29;;;;;;;5.65;2.53;;;;;;;15.45;100.00;97538.56;5069953;28;20044;-66
2022/06/13 00:58:58;;;;;;;;;;;;;;;15.50;100.00;97539.63;5070000;28;20569;-66
2022/06/13 01:01:26;;;;;;;6.60;2.90;;;;;;;15.51;100.00;97552.19;5070211;28;19966;-67
2022/06/13 01:03:53;;;;;;;4.95;2.75;;;;;;;15.54;100.00;97557.06;5069515;28;20566;-66
2022/06/13 01:06:21;;;;;;;5.72;2.97;;;;;;;15.53;98.94;97555.44;5069914;28;20045;-66
2022/06/13 01:08:47;;;;;;;7.35;2.97;;;;;;;15.51;99.92;97552.19;5070068;28;20043;-66
2022/06/13 01:11:18;;;;;;;6.10;2.63;;;;;;;15.36;99.95;97556.59;5069299;28;20052;-66
2022/06/13 01:13:45;;;;;;;4.37;2.63;;;;;;;15.39;100.00;97556.06;5069832;28;20051;-67
2022/06/13 01:16:40;;;;;;;5.68;2.80;;;;;;;15.36;99.94;97558.53;5069743;28;20697;-66
2022/06/13 01:19:18;;;;;;;6.40;3.05;;;;;;;15.32;100.00;97566.44;5069261;28;20044;-66
2022/06/13 01:22:08;;;;;;;6.72;3.40;;;;;;;15.26;100.00;97552.00;5069393;28;20105;-66
2022/06/13 01:24:49;;;;;;;7.40;3.50;;;;;;;15.31;100.00;97548.44;5069642;28;20056;-66
2022/06/13 01:27:48;;;;;;;5.90;3.35;;;;;;;15.26;100.00;97549.28;5069050;28;20264;-66
2022/06/13 01:30:52;;;;;;;7.43;3.85;;;;;;;15.27;100.00;97545.47;5069862;28;20185;-66
2022/06/13 01:33:40;;;;;;;5.88;3.25;;;;;;;15.25;100.00;97533.22;5068934;28;20481;-66
2022/06/13 01:36:26;;;;;;;5.88;3.38;;;;;;;15.23;100.00;97529.94;5060850;28;20063;-66
2022/06/13 01:39:29;;;;;;;9.82;3.80;;;;;;;15.13;100.00;97526.16;5065688;28;20040;-66
2022/06/13 01:41:58;;;;;;;5.18;3.17;;;;;;;15.08;100.00;97526.19;5069021;28;20082;-66
2022/06/13 01:44:31;;;;;;;6.53;3.70;;;;;;;14.95;100.00;97531.13;5069614;28;20098;-66
2022/06/13 01:47:34;;;;;;;5.72;3.25;;;;;;;14.90;100.00;97524.84;5069297;28;20309;-66
2022/06/13 01:50:33;;;;;;;8.85;3.70;;;;;;;14.95;100.00;97531.13;5068471;28;20083;-66
2022/06/13 01:53:38;;;;;;;6.07;3.35;;;;;;;14.98;100.00;97540.66;5068949;28;20048;-66
2022/06/13 01:56:09;;;;;;;4.85;2.90;;;;;;;15.00;100.00;97541.16;5046144;28;20060;-66
2022/06/13 01:58:59;;;;;;;7.75;3.00;;;;;;;14.98;100.00;97545.28;5049121;28;20377;-66
2022/06/13 02:01:40;;;;;;;6.65;2.83;;;;;;;14.92;99.66;97552.63;5048985;28;20095;-66
2022/06/13 02:04:33;;;;;;;5.97;2.95;;;;;;;14.87;100.00;97545.31;5059448;28;20050;-66
2022/06/13 02:07:17;;;;;;;4.43;2.85;;;;;;;14.88;99.54;97549.66;5068348;28;20056;-66
2022/06/13 02:09:52;;;;;;;5.05;2.65;;;;;;;14.91;97.50;97554.56;5068741;28;20059;-66
2022/06/13 02:12:23;;;;;;;5.93;2.45;;;;;;;14.93;94.36;97538.75;5069161;28;20098;-66
2022/06/13 02:14:54;;;;;;;5.40;2.50;;;;;;;14.98;95.47;97548.00;5068536;28;20318;-66
2022/06/13 02:17:27;;;;;;;5.93;2.20;;;;;;;14.98;93.59;97548.00;5068400;28;20098;-66
2022/06/13 02:20:00;;;;;;;7.70;2.78;;;;;;;15.05;92.37;97557.53;5068583;28;20044;-66
2022/06/13 02:22:35;;;;;;;7.88;2.55;;;;;;;15.11;91.98;97552.06;5068998;28;20052;-66
2022/06/13 02:25:11;;;;;;;5.82;2.88;;;;;;;15.07;93.40;97555.34;5068181;28;20044;-66
2022/06/13 02:27:40;;;;;;;5.50;2.45;;;;;;;15.06;92.89;97556.44;5068553;28;20032;-66
2022/06/13 02:30:11;;;;;;;8.07;2.63;;;;;;;15.05;92.37;97556.72;5068372;28;20239;-66
2022/06/13 02:32:48;;;;;;;4.22;2.10;;;;;;;15.04;92.50;97555.09;5067806;28;20049;-66
2022/06/13 02:35:23;;;;;;;8.10;2.75;;;;;;;15.07;91.92;97547.16;5068629;28;20036;-66
2022/06/13 02:37:57;;;;;;;5.35;2.70;;;;;;;15.03;91.32;97537.91;5067813;28;20048;-66
2022/06/13 02:40:39;;;;;;;5.50;2.42;;;;;;;14.99;93.03;97549.63;5048578;28;20067;-66
2022/06/13 02:43:51;;;;;;;7.50;2.65;;;;;;;14.97;93.49;97547.19;5048062;28;20063;-66
2022/06/13 02:46:45;;;;;;;7.13;2.58;;;;;;;14.90;93.52;97554.84;5045092;28;20606;-66
2022/06/13 02:49:41;;;;;;;5.30;2.63;;;;;;;14.77;91.82;97562.50;5044326;28;20548;-66
2022/06/13 02:52:21;;;;;;;9.18;2.80;;;;;;;14.68;91.55;97570.38;5056299;28;20052;-66
2022/06/13 02:54:55;;;;;;;6.30;2.63;;;;;;;14.60;91.87;97564.66;5067643;28;20090;-66
2022/06/13 02:58:07;;;;;;;6.53;2.20;;;;;;;14.49;90.66;97558.41;5067689;28;20040;-66
2022/06/13 03:00:49;;;;;;;4.95;2.65;;;;;;;14.41;90.37;97557.84;5065916;28;20074;-66
2022/06/13 03:03:35;;;;;;;6.18;2.78;;;;;;;14.30;89.76;97558.97;5068213;28;20231;-66
2022/06/13 03:06:13;;;;;;;8.07;2.50;;;;;;;14.31;90.64;97560.59;5067049;28;20094;-67
2022/06/13 03:08:57;;;;;;;7.75;2.50;;;;;;;14.28;89.99;97569.28;5067672;28;20110;-66
2022/06/13 03:11:47;;;;;;;6.32;2.58;;;;;;;14.18;90.29;97562.75;5067128;28;20312;-66
2022/06/13 03:14:38;;;;;;;12.05;2.80;;;;;;;14.10;90.16;97571.44;5067998;28;20048;-66
2022/06/13 03:17:21;;;;;;;7.68;2.67;;;;;;;14.01;89.50;97568.44;5065223;28;20052;-67
2022/06/13 03:19:56;;;;;;;7.75;2.85;;;;;;;13.97;89.81;97558.38;5065697;28;20041;-66
2022/06/13 03:22:31;;;;;;;8.70;2.75;;;;;;;13.96;88.80;97560.25;5064304;28;20075;-66
2022/06/13 03:25:08;;;;;;;9.27;2.70;;;;;;;13.94;87.73;97557.00;5065486;28;20051;-67
2022/06/13 03:27:43;;;;;;;9.15;3.15;;;;;;;13.92;87.05;97567.34;5064395;28;20237;-66
2022/06/13 03:30:20;;;;;;;8.75;2.30;;;;;;;13.93;87.13;97565.44;5064924;28;20557;-66
2022/06/13 03:35:49;;;;;;;10.35;2.83;;;;;;;13.89;86.34;97582.28;5059973;28;20056;-66
2022/06/13 03:38:25;;;;;;;9.57;2.55;;;;;;;13.87;86.31;97572.78;5064162;28;20049;-66
2022/06/13 03:40:57;;;;;;;9.18;3.45;;;;;;;13.93;85.21;97570.88;5064891;28;20044;-66
2022/06/13 03:43:30;;;;;;;5.80;2.75;;;;;;;13.91;85.21;97576.59;5065362;28;20127;-66
2022/06/13 03:46:03;;;;;;;9.98;2.75;;;;;;;13.89;85.40;97570.59;5064248;28;20050;-66
2022/06/13 03:48:39;;;;;;;6.40;2.72;;;;;;;13.87;86.02;97579.03;5064350;28;20533;-66
2022/06/13 03:51:18;;;;;;;5.97;2.45;;;;;;;13.88;84.98;97572.50;5066665;28;20044;-66
2022/06/13 03:53:52;;;;;;;7.80;2.63;;;;;;;13.86;84.23;97579.31;5066167;28;20037;-66
2022/06/13 03:56:30;;;;;;;7.25;2.88;;;;;;;13.85;84.79;97575.75;5066532;28;20045;-66
2022/06/13 03:59:10;;;;;;;9.23;2.78;;;;;;;13.99;85.04;97573.34;5066876;28;20049;-67
2022/06/13 04:01:48;;;;;;;7.63;2.40;;;;;;;13.98;83.82;97576.34;5067183;28;20075;-67
2022/06/13 04:04:18;;;;;;;9.60;3.05;;;;;;;14.04;83.79;97572.53;5057374;28;20053;-67
2022/06/13 04:06:46;;;;;;;8.15;3.13;;;;;;;14.11;83.88;97570.34;5066479;28;20044;-66
2022/06/13 04:09:15;;;;;;;8.50;3.13;;;;;;;14.05;82.92;97574.19;5066747;28;20415;-66
2022/06/13 04:11:55;;;;;;;9.07;3.67;;;;;;;14.08;83.19;97570.91;5067406;28;20048;-66
2022/06/13 04:15:02;;;;;;;5.53;2.53;;;;;;;13.99;83.23;97591.56;5066331;28;20235;-67
2022/06/13 04:17:31;;;;;;;5.50;2.55;;;;;;;13.96;82.87;97598.38;5066184;28;20052;-67
2022/06/13 04:20:16;;;;;;;8.88;2.67;;;;;;;14.01;82.76;97592.13;5065815;28;20059;-66
2022/06/13 04:22:49;;;;;;;8.27;2.65;;;;;;;14.01;81.74;97600.31;5066110;28;20040;-66
2022/06/13 04:25:27;;;;;;;7.65;2.50;;;;;;;14.03;81.67;97604.38;5066249;28;20075;-67
2022/06/13 04:28:09;;;;;;;4.63;2.13;;;;;;;13.99;80.53;97603.28;5066472;28;20051;-66
2022/06/13 04:30:37;;;;;;;5.55;2.53;;;;;;;14.01;79.93;97605.75;5066175;28;20117;-67
2022/06/13 04:33:16;;;;;;;6.65;2.92;;;;;;;14.07;81.67;97609.31;5066750;28;20033;-66
2022/06/13 04:35:45;;;;;;;5.10;2.20;;;;;;;14.05;78.44;97607.66;5066756;28;20040;-67
2022/06/13 04:38:15;;;;;;;7.38;2.83;;;;;;;14.13;79.66;97600.03;5065865;28;20032;-66
2022/06/13 04:40:48;;;;;;;10.75;2.58;;;;;;;14.11;78.75;97600.31;5066539;28;20439;-67
2022/06/13 04:43:18;;;;;;;9.98;2.90;;;;;;;14.11;79.61;97605.75;5065836;28;20051;-66
2022/06/13 04:46:04;;;;;;;7.63;2.50;;;;;;;14.18;81.20;97606.31;5064433;28;20041;-67
2022/06/13 04:48:32;;;;;;;11.48;2.83;;;;;;;14.19;79.59;97612.56;5063274;28;20045;-67
2022/06/13 04:51:07;;;;;;;7.30;2.83;;;;;;;14.27;79.10;97603.06;5064127;28;20604;-67
2022/06/13 04:53:55;;;;;;;6.93;2.60;;;;;;;14.12;78.89;97615.56;5063965;28;20177;-66
2022/06/13 04:56:23;;;;;;;5.90;2.70;;;;;;;14.08;78.67;97627.25;5059751;28;20049;-66
2022/06/13 04:58:52;;;;;;;11.30;2.90;;;;;;;14.12;79.27;97621.00;5063840;28;20059;-66
2022/06/13 05:01:45;;;;;;;7.22;3.30;;;;;;;14.21;78.39;97629.47;5063425;28;20127;-66
2022/06/13 05:04:22;;;;;;;8.20;2.72;;;;;;;14.23;78.55;97643.63;5060007;28;20085;-66
2022/06/13 05:06:51;;;;;;;8.25;3.38;;;;;;;14.29;78.75;97639.84;5063183;28;20132;-66
2022/06/13 05:09:23;;;;;;;6.15;2.60;;;;;;;14.29;77.69;97650.72;5063224;28;20048;-67
2022/06/13 05:12:07;;;;;;;7.35;2.95;;;;;;;14.29;78.22;97652.63;5063510;28;20036;-67
2022/06/13 05:14:47;;;;;;;9.85;2.60;;;;;;;14.29;77.67;97655.34;5063125;28;20044;-66
2022/06/13 05:17:38;;;;;;;7.90;2.63;;;;;;;14.35;77.39;97656.19;5065252;28;20053;-66
2022/06/13 05:20:31;;;;;;;7.70;2.85;;;;;;;14.32;76.79;97657.53;5065593;28;20045;-66
2022/06/13 05:23:14;;;;;;;7.68;2.88;;;;;;;14.40;76.62;97662.47;5065707;28;20128;-66
2022/06/13 05:25:45;;;;;;;7.40;2.80;;;;;;;14.41;77.79;97663.28;5065791;28;20044;-66
2022/06/13 05:28:15;;;;;;;;;;;;;;;14.51;76.96;97673.38;5066456;28;20098;-67
2022/06/13 05:30:43;;;;;;;8.90;3.00;;;;;;;14.48;75.06;97663.03;5068659;28;19921;-66
2022/06/13 05:33:15;;;;;;;9.20;2.85;;;;;;;14.50;75.72;97675.28;5069870;28;21101;-67
2022/06/13 05:35:43;;;;;;;7.65;3.72;;;;;;;14.56;74.74;97673.41;5068979;28;20051;-67
2022/06/13 05:38:32;;;;;;;7.35;2.75;;;;;;;14.70;74.94;97677.22;5069284;28;20127;-66
2022/06/13 05:40:58;;;;;;;8.25;2.90;;;;;;;14.78;74.57;97683.25;5069278;28;20040;-66
2022/06/13 05:43:25;;;;;;;6.95;3.10;;;;;;;14.80;73.75;97681.88;5069159;28;20049;-67
2022/06/13 05:45:52;;;;;;;9.90;2.80;;;;;;;14.90;73.78;97685.69;5068702;28;20048;-66
2022/06/13 05:48:21;;;;;;;5.85;2.83;;;;;;;14.99;72.82;97685.97;5069505;28;20040;-67
2022/06/13 05:50:48;;;;;;;6.93;2.42;;;;;;;14.99;72.63;97692.25;5068949;28;20049;-67
2022/06/13 05:53:22;;;;;;;5.55;2.50;;;;;;;15.03;73.89;97693.31;5068512;28;20045;-67
2022/06/13 05:55:51;;;;;;;5.82;2.75;;;;;;;15.07;73.39;97696.31;5068455;28;20193;-67
2022/06/13 05:58:22;;;;;;;9.63;3.20;;;;;;;15.13;71.71;97708.03;5068489;28;20048;-66
2022/06/13 06:00:52;;;;;;;;;;;;;;;15.24;72.10;97717.03;5069521;28;20384;-67
2022/06/13 06:03:19;;;;;;;10.23;2.70;;;;;;;15.27;71.69;97717.31;5068837;28;19954;-66
2022/06/13 06:05:47;;;;;;;6.57;2.75;;;;;;;15.34;72.78;97722.50;5065847;28;20503;-66
2022/06/13 06:08:19;;;;;;;7.03;2.28;;;;;;;15.29;72.66;97726.03;5067762;28;20044;-67
2022/06/13 06:10:48;;;;;;;8.75;2.67;;;;;;;15.50;72.83;97722.47;5068467;28;20144;-66
2022/06/13 06:13:15;;;;;;;6.93;2.65;;;;;;;15.46;71.75;97722.19;5068843;28;20090;-66
2022/06/13 06:15:43;;;;;;;6.40;2.42;;;;;;;15.60;72.51;97725.19;5068094;28;20056;-67
2022/06/13 06:18:12;;;;;;;7.03;3.28;;;;;;;15.48;70.24;97723.56;5068570;28;20530;-67
2022/06/13 06:20:39;;;;;;;8.90;2.90;;;;;;;15.54;69.91;97723.53;5068493;28;20052;-67
2022/06/13 06:23:07;;;;;;;8.30;2.70;;;;;;;15.63;70.51;97730.09;5068782;28;20036;-67
2022/06/13 06:25:35;;;;;;;8.20;3.00;;;;;;;15.54;70.31;97729.00;5067647;28;20071;-67
2022/06/13 06:28:02;;;;;;;10.43;2.67;;;;;;;15.68;71.26;97729.25;5068254;28;20052;-67
2022/06/13 06:30:29;;;;;;;8.65;2.60;;;;;;;15.86;71.04;97728.66;5066739;28;20052;-67
2022/06/13 06:32:57;;;;;;;9.57;2.83;;;;;;;15.87;69.55;97734.94;5065648;28;21237;-67
2022/06/13 06:35:26;;;;;;;5.82;2.55;;;;;;;15.76;69.49;97736.03;5065089;28;20048;-66
2022/06/13 06:37:54;;;;;;;10.15;2.55;;;;;;;15.75;69.51;97740.72;5066228;28;20045;-67
2022/06/13 06:40:23;;;;;;;7.93;2.72;;;;;;;15.86;70.42;97746.97;5063115;28;20103;-67
2022/06/13 06:42:50;;;;;;;8.95;2.97;;;;;;;16.04;69.24;97742.00;5064947;28;20052;-67
2022/06/13 06:45:25;;;;;;;;;;;;;;;16.20;68.43;97745.50;5065858;28;20048;-67
2022/06/13 06:47:53;;;;;;;9.38;2.60;;;;;;;16.09;68.41;97750.19;5065941;28;20362;-66
2022/06/13 06:50:24;;;;;;;10.77;2.80;;;;;;;16.27;68.30;97747.91;5065992;28;20051;-67
2022/06/13 06:52:51;;;;;;;7.45;2.85;;;;;;;16.10;67.53;97757.28;5065984;28;20048;-66
2022/06/13 07:01:04;;;;;;;5.90;2.10;;;;;;;16.08;65.50;97757.56;5066726;28;20102;-66
2022/06/13 07:03:31;;;;;;;6.00;1.98;;;;;;;16.17;65.91;97748.78;5067860;28;20147;-66
2022/06/13 07:05:58;;;;;;;7.65;2.13;;;;;;;16.29;65.22;97751.22;5066926;28;20056;-66
2022/06/13 07:08:24;;;;;;;9.95;2.70;;;;;;;16.28;65.14;97744.91;5067753;28;20412;-66
2022/06/13 07:10:51;;;;;;;5.82;2.20;;;;;;;16.26;63.36;97741.66;5067394;28;20048;-66
2022/06/13 07:13:19;;;;;;;7.07;2.33;;;;;;;16.21;62.89;97755.31;5067707;28;20041;-66
2022/06/13 07:15:48;;;;;;;4.05;1.92;;;;;;;16.30;62.65;97752.84;5067298;28;20293;-67
2022/06/13 07:18:16;;;;;;;10.38;2.38;;;;;;;16.28;61.38;97755.03;5066736;28;20075;-66
2022/06/13 07:20:42;;;;;;;9.70;2.35;;;;;;;16.45;61.43;97760.97;5067432;28;20044;-66
2022/06/13 07:23:09;;;;;;;7.47;2.10;;;;;;;16.66;60.45;97757.31;5067738;28;20055;-67
2022/06/13 07:25:36;;;;;;;8.70;2.20;;;;;;;16.62;59.92;97760.59;5066752;28;20384;-66
2022/06/13 07:28:02;;;;;;;9.38;2.20;;;;;;;16.68;60.33;97769.59;5067396;28;20040;-66
2022/06/13 07:30:29;;;;;;;5.18;1.90;;;;;;;16.72;61.14;97767.09;5067535;28;20518;-66
2022/06/13 07:32:57;;;;;;;8.50;2.60;;;;;;;16.78;60.42;97776.91;5067505;28;20106;-66
2022/06/13 07:35:25;;;;;;;8.25;2.30;;;;;;;16.95;59.90;97776.53;5066632;28;20053;-67
2022/06/13 07:40:38;;;;;;;6.47;2.40;;;;;;;16.99;60.72;97771.31;5051147;28;20040;-66
2022/06/13 07:43:06;;;;;;;7.05;2.22;;;;;;;17.10;60.55;97777.56;5067297;28;20040;-67
2022/06/13 07:45:40;;;;;;;8.07;2.60;;;;;;;17.26;59.71;97781.81;5066654;28;20066;-66
2022/06/13 07:48:19;;;;;;;11.65;2.88;;;;;;;17.19;57.90;97777.75;5066749;28;20045;-67
2022/06/13 07:50:46;;;;;;;8.25;2.90;;;;;;;17.11;59.82;97776.44;5067133;28;20404;-66
2022/06/13 07:53:13;;;;;;;7.25;2.45;;;;;;;17.34;59.47;97782.28;5066178;28;20048;-66
2022/06/13 07:55:40;;;;;;;6.28;2.45;;;;;;;17.27;60.53;97775.22;5066532;28;20040;-66
2022/06/13 07:58:15;;;;;;;8.82;2.30;;;;;;;17.46;60.61;97774.53;5065734;28;20040;-66
2022/06/13 08:00:44;;;;;;;8.75;3.22;;;;;;;17.55;59.63;97772.78;5066878;28;20036;-66
2022/06/13 08:03:17;;;;;;;8.23;3.42;;;;;;;17.58;59.63;97781.53;5066456;28;20044;-66
2022/06/13 08:05:44;;;;;;;10.13;3.17;;;;;;;17.44;60.17;97781.38;5066337;28;20499;-66
2022/06/13 08:08:10;;;;;;;10.40;3.25;;;;;;;17.41;60.60;97786.34;5065529;28;20097;-66
2022/06/13 08:10:38;;;;;;;6.05;2.83;;;;;;;17.38;60.72;97778.69;5066528;28;20044;-66
2022/06/13 08:13:05;;;;;;;8.40;2.80;;;;;;;17.39;60.96;97783.06;5065120;28;20102;-67
2022/06/13 08:15:31;;;;;;;7.10;2.53;;;;;;;17.54;59.81;97789.50;5063743;28;20576;-67
2022/06/13 08:17:58;;;;;;;6.45;2.40;;;;;;;17.45;60.32;97789.31;5063952;28;20047;-66
2022/06/13 08:20:25;;;;;;;8.07;2.42;;;;;;;17.74;60.65;97788.50;5064483;28;20419;-66
2022/06/13 08:22:54;;;;;;;9.45;2.88;;;;;;;18.06;59.48;97789.81;5064549;28;20040;-66
2022/06/13 08:25:26;;;;;;;6.82;1.98;;;;;;;18.19;56.41;97799.31;5064523;28;20056;-66
2022/06/13 08:27:54;;;;;;;6.32;2.38;;;;;;;18.06;56.39;97794.50;5064664;28;20056;-66
2022/06/13 08:30:20;;;;;;;7.25;2.50;;;;;;;18.13;55.55;97794.16;5064555;28;20045;-67
2022/06/13 08:32:47;;;;;;;6.28;2.45;;;;;;;17.95;56.11;97791.03;5063985;28;20041;-67
2022/06/13 08:35:14;;;;;;;9.10;2.95;;;;;;;17.45;58.92;97796.69;5064372;28;20852;-66
2022/06/13 08:37:41;;;;;;;7.63;2.63;;;;;;;17.61;58.13;97800.16;5063868;28;20389;-66
2022/06/13 08:40:09;;;;;;;6.50;2.28;;;;;;;17.70;57.59;97792.09;5064302;28;20040;-67
2022/06/13 08:42:57;;;;;;;9.00;2.38;;;;;;;17.78;56.93;97795.03;5064789;28;20051;-67
2022/06/13 08:45:38;;;;;;;10.38;2.72;;;;;;;18.22;56.61;97797.91;5055360;28;20052;-67
2022/06/13 08:48:13;;;;;;;6.28;2.30;;;;;;;18.59;54.72;97799.09;5064386;28;20087;-67
2022/06/13 08:50:53;;;;;;;8.18;2.90;;;;;;;18.87;52.81;97797.63;5064580;28;20049;-66
2022/06/13 08:53:30;;;;;;;9.48;3.15;;;;;;;18.53;52.14;97797.50;5064489;28;20404;-66
2022/06/13 08:56:04;;;;;;;5.70;3.10;;;;;;;18.45;52.63;97806.38;5063325;28;20532;-66
2022/06/13 08:58:39;;;;;;;9.23;2.72;;;;;;;18.65;53.15;97807.25;5064102;28;20419;-66
2022/06/13 09:01:19;;;;;;;8.13;2.17;;;;;;;18.77;53.22;97806.81;5063773;28;20467;-66
2022/06/13 09:04:08;;;;;;;9.52;2.47;;;;;;;19.13;51.86;97802.78;5064198;28;20056;-66
2022/06/13 09:06:44;;;;;;;8.40;2.40;;;;;;;18.83;51.73;97806.44;5065395;28;20098;-66
2022/06/13 09:09:34;;;;;;;8.10;2.90;;;;;;;18.57;52.93;97812.28;5068199;28;20040;-66
2022/06/13 09:12:23;;;;;;;7.18;2.38;;;;;;;18.20;53.74;97817.38;5067571;28;20460;-66
2022/06/13 09:14:58;;;;;;;9.30;3.15;;;;;;;18.17;54.81;97820.69;5067832;28;20110;-66
2022/06/13 09:17:47;;;;;;;6.18;2.45;;;;;;;18.37;54.93;97824.31;5066828;28;20048;-66
2022/06/13 09:20:24;;;;;;;6.18;2.17;;;;;;;18.65;53.35;97821.75;5067956;28;20041;-66
2022/06/13 09:23:02;;;;;;;8.73;2.72;;;;;;;18.73;51.21;97828.53;5067126;28;20059;-66
2022/06/13 09:25:50;;;;;;;7.03;1.75;;;;;;;19.03;49.92;97821.00;5067267;28;20522;-67
2022/06/13 09:28:31;;;;;;;6.15;2.25;;;;;;;19.06;49.94;97820.41;5067000;28;20446;-66
2022/06/13 09:31:06;;;;;;;4.27;1.97;;;;;;;18.63;49.99;97826.75;5066939;28;20122;-67
2022/06/13 09:33:37;;;;;;;4.47;1.92;;;;;;;18.98;50.62;97824.63;5069384;28;20161;-66
2022/06/13 09:36:28;;;;;;;9.68;1.70;;;;;;;19.09;48.85;97822.56;5066236;28;20555;-67
2022/06/13 09:39:02;;;;;;;5.88;1.60;;;;;;;19.19;48.62;97821.59;5056943;28;20056;-66
2022/06/13 09:41:41;;;;;;;5.60;1.85;;;;;;;19.23;50.01;97811.66;5067009;28;20052;-67
2022/06/13 09:44:20;;;;;;;6.00;1.90;;;;;;;19.15;49.75;97817.81;5067583;28;20503;-66
2022/06/13 09:47:01;;;;;;;6.82;1.75;;;;;;;18.99;46.12;97825.44;5065923;28;20393;-66
2022/06/13 09:49:47;;;;;;;;;;;;;;;19.14;45.27;97816.19;5067160;28;20491;-67
2022/06/13 09:52:33;;;;;;;4.32;1.58;;;;;;;19.18;45.99;97819.16;5066527;28;19921;-66
2022/06/13 09:55:14;;;;;;;5.35;1.30;;;;;;;19.24;42.19;97816.03;5068819;28;20044;-66
2022/06/13 09:58:13;;;;;;;3.08;1.38;;;;;;;19.24;43.61;97813.28;5068439;28;20088;-66
2022/06/13 10:01:12;;;;;;;4.90;1.67;;;;;;;19.15;44.53;97815.06;5069279;28;20045;-66
2022/06/13 10:04:09;;;;;;;5.68;1.95;;;;;;;19.32;44.84;97811.78;5068883;28;20041;-66
2022/06/13 10:06:42;;;;;;;7.03;1.73;;;;;;;19.30;45.26;97807.72;5048337;28;20029;-66
2022/06/13 10:09:16;;;;;;;7.85;1.98;;;;;;;19.49;47.23;97826.91;5066191;28;20041;-66
2022/06/13 10:12:07;;;;;;;4.47;1.60;;;;;;;19.51;45.39;97816.44;5066514;28;20459;-67
2022/06/13 10:14:43;;;;;;;8.07;1.65;;;;;;;19.53;45.87;97811.44;5066726;28;20121;-66
2022/06/13 10:17:32;;;;;;;4.95;2.22;;;;;;;19.58;44.13;97814.13;5065322;28;20467;-67
2022/06/13 10:20:37;;;;;;;7.18;1.50;;;;;;;19.63;45.54;97810.47;5066686;28;20408;-66
2022/06/13 10:23:34;;;;;;;6.45;1.85;;;;;;;19.69;46.13;97809.28;5066327;28;20519;-67
2022/06/13 10:26:16;;;;;;;4.13;1.70;;;;;;;19.81;45.50;97817.03;5065709;28;20545;-66
2022/06/13 10:29:16;;;;;;;5.53;1.90;;;;;;;20.04;44.57;97813.66;5065990;28;20541;-66
2022/06/13 10:31:57;;;;;;;4.85;1.73;;;;;;;20.20;43.61;97808.66;5067702;28;20052;-67
2022/06/13 10:34:59;;;;;;;9.20;2.10;;;;;;;20.72;44.34;97813.94;5068690;28;20040;-67
2022/06/13 10:37:54;;;;;;;6.28;1.67;;;;;;;20.43;43.49;97819.75;5067731;28;20044;-67
2022/06/13 10:40:21;;;;;;;6.03;1.80;;;;;;;20.70;44.29;97812.59;5068506;28;20511;-67
2022/06/13 10:42:47;;;;;;;5.97;1.88;;;;;;;20.53;44.43;97819.56;5065468;28;20102;-66
2022/06/13 10:45:15;;;;;;;5.43;1.50;;;;;;;20.64;43.95;97809.94;5065941;28;20071;-66
2022/06/13 10:47:51;;;;;;;7.72;1.85;;;;;;;20.67;44.44;97811.28;5065905;28;20455;-67
2022/06/13 10:50:26;;;;;;;5.75;1.90;;;;;;;20.82;44.28;97810.13;5064726;28;20044;-67
2022/06/13 10:52:59;;;;;;;5.32;1.80;;;;;;;20.98;44.62;97816.16;5066204;28;20052;-67
2022/06/13 10:55:30;;;;;;;5.95;1.70;;;;;;;21.33;42.59;97807.34;5065899;28;20048;-66
2022/06/13 10:58:02;;;;;;;8.70;2.03;;;;;;;21.52;42.10;97811.88;5053348;28;20066;-66
2022/06/13 11:00:30;;;;;;;7.35;3.95;;;;;;;21.31;43.73;97813.16;5065430;28;20300;-66
2022/06/13 11:03:18;;;;;;;6.45;2.22;;;;;;;21.36;43.41;97825.19;5067295;28;20133;-67
2022/06/13 11:06:05;;;;;;;7.47;2.00;;;;;;;21.28;41.29;97824.00;5065149;28;20070;-67
2022/06/13 11:08:33;;;;;;;3.88;1.60;;;;;;;20.99;42.89;97814.19;5064743;28;20102;-66
2022/06/13 11:11:04;;;;;;;6.43;1.80;;;;;;;21.24;42.18;97823.00;5065280;28;20109;-67
2022/06/13 11:13:37;;;;;;;5.57;1.70;;;;;;;21.17;40.66;97813.25;5065778;28;20547;-66
2022/06/13 11:25:12;;;;;;;4.43;1.50;;;;;;;21.39;39.32;97819.06;5065926;28;20052;-66
2022/06/13 11:27:39;;;;;;;5.30;1.40;;;;;;;22.06;37.36;97816.56;5064898;28;20102;-66
2022/06/13 11:30:18;;;;;;;5.32;2.25;;;;;;;22.04;37.43;97811.38;5065263;28;20044;-67
2022/06/13 11:33:03;;;;;;;8.05;1.85;;;;;;;22.11;39.00;97810.91;5065360;28;20470;-67
2022/06/13 11:35:42;;;;;;;4.38;1.50;;;;;;;22.05;38.68;97818.53;5058285;28;20047;-67
2022/06/13 11:38:25;;;;;;;3.30;1.40;;;;;;;22.46;38.07;97813.00;5064001;28;20049;-67
2022/06/13 11:41:13;;;;;;;7.30;1.73;;;;;;;22.46;38.06;97807.47;5064015;28;20049;-67
2022/06/13 11:43:46;;;;;;;4.80;1.85;;;;;;;22.38;38.78;97816.53;5054575;28;20045;-67
2022/06/13 11:46:31;;;;;;;7.68;1.50;;;;;;;21.40;39.75;97824.25;5064336;28;20060;-67
2022/06/13 11:49:21;;;;;;;3.67;1.45;;;;;;;20.78;40.91;97822.88;5065177;28;20238;-66
2022/06/13 11:51:53;;;;;;;4.55;1.38;;;;;;;21.46;39.07;97821.38;5068677;28;20052;-67
2022/06/13 11:54:34;;;;;;;4.93;1.50;;;;;;;21.89;38.19;97820.84;5065175;28;20395;-66
2022/06/13 11:57:12;;;;;;;4.53;1.38;;;;;;;21.38;38.50;97817.44;5064291;28;20039;-67
2022/06/13 12:00:05;;;;;;;4.20;1.40;;;;;;;21.89;37.36;97820.84;5051290;28;20037;-66
2022/06/13 12:02:39;;;;;;;5.78;1.80;;;;;;;22.01;37.14;97803.75;5063398;28;20152;-66
2022/06/13 12:05:32;;;;;;;2.97;1.13;;;;;;;22.70;37.15;97807.06;5061610;28;20091;-66
2022/06/13 12:08:21;;;;;;;8.32;1.80;;;;;;;22.52;37.43;97808.13;5059726;28;20460;-66
2022/06/13 12:10:59;;;;;;;6.95;1.60;;;;;;;22.21;38.46;97810.63;5059404;28;20033;-67
2022/06/13 12:13:27;;;;;;;4.72;1.75;;;;;;;21.52;39.29;97809.91;5063978;28;20044;-66
2022/06/13 12:16:08;;;;;;;5.80;1.63;;;;;;;21.44;38.74;97810.66;5064609;28;20561;-66
2022/06/13 12:19:16;;;;;;;5.10;2.00;;;;;;;21.63;37.99;97809.66;5063944;28;20704;-66
2022/06/13 12:21:54;;;;;;;4.15;1.55;;;;;;;21.28;39.80;97812.97;5064479;28;20040;-66
2022/06/13 12:24:36;;;;;;;6.50;1.70;;;;;;;21.94;38.05;97804.22;5059509;28;20626;-67
2022/06/13 12:27:29;;;;;;;4.03;1.50;;;;;;;21.60;38.53;97813.03;5064414;28;20067;-66
2022/06/13 12:30:09;;;;;;;8.15;1.50;;;;;;;21.61;40.40;97811.91;5063439;28;20052;-67
2022/06/13 12:32:42;;;;;;;4.47;1.40;;;;;;;21.78;37.17;97814.81;5064671;28;20132;-66
2022/06/13 12:35:20;;;;;;;3.63;1.70;;;;;;;21.70;37.09;97818.28;5064721;28;20048;-66
2022/06/13 12:38:16;;;;;;;5.20;1.58;;;;;;;21.69;37.33;97813.91;5063961;28;20583;-66